createdAt,value
2018-09-06T00:01:15.008Z,21.97
2018-09-06T00:03:43.419Z,22.70
2018-09-06T00:06:11.748Z,23.03
2018-09-06T00:08:39.935Z,24.43
2018-09-06T00:11:08.142Z,24.80
2018-09-06T00:13:36.477Z,24.40
2018-09-06T00:16:04.931Z,24.63
2018-09-06T00:18:33.158Z,24.57
2018-09-06T00:21:01.682Z,23.77
2018-09-06T00:23:29.960Z,24.30
2018-09-06T00:25:58.407Z,23.60
2018-09-06T00:28:26.651Z,25.70
2018-09-06T00:30:54.890Z,25.33
2018-09-06T00:33:23.232Z,24.03
2018-09-06T00:35:51.615Z,23.07
2018-09-06T00:38:20.034Z,24.67
2018-09-06T00:40:48.374Z,23.07
2018-09-06T00:43:16.735Z,23.80
2018-09-06T00:45:44.938Z,22.83
2018-09-06T00:48:13.562Z,22.30
2018-09-06T00:50:42.086Z,21.93
2018-09-06T00:53:10.291Z,21.87
2018-09-06T00:55:38.509Z,21.77
2018-09-06T00:58:06.875Z,21.63
2018-09-06T01:00:35.166Z,21.53
2018-09-06T01:03:03.425Z,21.30
2018-09-06T01:05:31.642Z,21.73
2018-09-06T01:07:59.866Z,21.93
2018-09-06T01:10:28.202Z,22.37
2018-09-06T01:12:56.430Z,22.00
2018-09-06T01:15:24.781Z,21.40
2018-09-06T01:17:52.996Z,23.33
2018-09-06T01:20:21.317Z,23.17
2018-09-06T01:22:49.773Z,21.03
2018-09-06T01:25:17.969Z,22.33
2018-09-06T01:27:46.392Z,23.33
2018-09-06T01:30:14.630Z,23.13
2018-09-06T01:32:42.945Z,22.60
2018-09-06T01:35:11.270Z,22.67
2018-09-06T01:37:39.510Z,22.80
2018-09-06T01:40:07.814Z,22.63
2018-09-06T01:42:36.129Z,22.73
2018-09-06T01:45:04.430Z,22.97
2018-09-06T01:47:32.710Z,21.73
2018-09-06T01:50:00.937Z,21.60
2018-09-06T01:52:29.171Z,22.23
2018-09-06T01:54:57.650Z,21.60
2018-09-06T01:57:25.859Z,21.10
2018-09-06T01:59:54.138Z,22.23
2018-09-06T02:02:22.450Z,23.03
2018-09-06T02:04:50.689Z,22.40
2018-09-06T02:07:18.914Z,22.57
2018-09-06T02:09:47.141Z,22.23
2018-09-06T02:12:15.317Z,22.17
2018-09-06T02:14:44.192Z,22.70
2018-09-06T02:17:12.584Z,22.63
2018-09-06T02:19:40.810Z,22.53
2018-09-06T02:22:09.009Z,23.00
2018-09-06T02:24:37.206Z,22.80
2018-09-06T02:27:05.685Z,21.77
2018-09-06T02:29:33.933Z,23.47
2018-09-06T02:32:02.194Z,22.73
2018-09-06T02:34:30.386Z,22.80
2018-09-06T02:36:58.638Z,21.57
2018-09-06T02:39:27.052Z,23.80
2018-09-06T02:41:55.343Z,24.00
2018-09-06T02:44:23.768Z,22.73
2018-09-06T02:46:52.344Z,21.93
2018-09-06T02:51:28.233Z,23.33
2018-09-06T02:53:56.698Z,23.17
2018-09-06T02:56:24.829Z,24.10
2018-09-06T02:58:53.021Z,25.03
2018-09-06T03:01:21.272Z,24.90
2018-09-06T03:03:49.752Z,25.17
2018-09-06T03:06:18.005Z,24.20
2018-09-06T03:08:46.341Z,24.17
2018-09-06T03:11:16.885Z,26.03
2018-09-06T03:13:45.297Z,25.93
2018-09-06T03:16:13.746Z,26.67
2018-09-06T03:18:42.277Z,26.30
2018-09-06T03:21:10.538Z,26.87
2018-09-06T03:23:38.749Z,26.37
2018-09-06T03:26:12.521Z,26.33
2018-09-06T03:28:40.725Z,27.00
2018-09-06T03:31:08.919Z,28.43
2018-09-06T03:33:37.123Z,28.00
2018-09-06T03:36:06.048Z,27.37
2018-09-06T03:38:34.372Z,27.17
2018-09-06T03:41:02.602Z,28.53
2018-09-06T03:43:30.810Z,24.23
2018-09-06T03:45:59.122Z,22.47
2018-09-06T03:48:27.423Z,22.43
2018-09-06T03:50:55.921Z,21.67
2018-09-06T03:53:24.198Z,22.53
2018-09-06T03:55:52.418Z,21.57
2018-09-06T03:58:20.969Z,22.57
2018-09-06T04:00:49.878Z,22.37
2018-09-06T04:03:18.239Z,21.70
2018-09-06T04:05:46.587Z,21.90
2018-09-06T04:08:14.789Z,21.67
2018-09-06T04:10:43.101Z,21.00
2018-09-06T04:13:11.346Z,20.27
2018-09-06T04:15:39.558Z,23.67
2018-09-06T04:18:07.844Z,21.27
2018-09-06T04:20:36.268Z,22.67
2018-09-06T04:23:04.536Z,22.97
2018-09-06T04:25:32.833Z,22.57
2018-09-06T04:28:01.099Z,22.13
2018-09-06T04:30:29.386Z,22.43
2018-09-06T04:32:57.767Z,23.27
2018-09-06T04:35:26.041Z,23.67
2018-09-06T04:37:54.222Z,22.93
2018-09-06T04:40:22.492Z,21.80
2018-09-06T04:42:50.889Z,22.50
2018-09-06T04:45:19.110Z,21.10
2018-09-06T04:47:47.329Z,23.07
2018-09-06T04:50:15.541Z,23.80
2018-09-06T04:52:43.832Z,20.57
2018-09-06T04:55:12.168Z,23.40
2018-09-06T04:57:40.349Z,24.17
2018-09-06T05:00:08.573Z,24.80
2018-09-06T05:02:36.773Z,22.87
2018-09-06T05:05:06.349Z,24.30
2018-09-06T05:07:34.625Z,23.10
2018-09-06T05:10:02.814Z,23.80
2018-09-06T05:12:30.991Z,21.87
2018-09-06T05:14:59.218Z,21.47
2018-09-06T05:17:27.530Z,22.43
2018-09-06T05:19:55.769Z,22.70
2018-09-06T05:22:23.973Z,21.30
2018-09-06T05:24:52.170Z,22.27
2018-09-06T05:27:20.550Z,22.80
2018-09-06T05:29:48.819Z,22.73
2018-09-06T05:32:17.097Z,23.20
2018-09-06T05:34:45.273Z,22.67
2018-09-06T05:37:13.571Z,22.03
2018-09-06T05:39:41.863Z,21.40
2018-09-06T05:42:10.194Z,22.60
2018-09-06T05:44:38.413Z,22.43
2018-09-06T05:47:07.482Z,22.93
2018-09-06T05:49:35.756Z,22.53
2018-09-06T05:52:04.006Z,23.17
2018-09-06T05:54:32.180Z,22.97
2018-09-06T05:57:00.590Z,23.50
2018-09-06T05:59:28.931Z,22.53
2018-09-06T06:01:57.210Z,22.47
2018-09-06T06:04:25.467Z,23.73
2018-09-06T06:06:53.657Z,23.80
2018-09-06T06:09:21.854Z,25.07
2018-09-06T06:11:50.152Z,23.57
2018-09-06T06:14:18.323Z,25.37
2018-09-06T06:16:46.529Z,26.23
2018-09-06T06:19:14.710Z,25.60
2018-09-06T06:21:43.111Z,24.43
2018-09-06T06:24:12.262Z,24.63
2018-09-06T06:26:40.494Z,25.73
2018-09-06T06:29:09.030Z,23.57
2018-09-06T06:31:37.295Z,25.07
2018-09-06T06:34:05.741Z,24.20
2018-09-06T06:36:33.986Z,24.80
2018-09-06T06:39:02.241Z,26.37
2018-09-06T06:41:30.444Z,26.50
2018-09-06T06:43:59.362Z,25.13
2018-09-06T06:46:27.608Z,24.83
2018-09-06T06:48:55.833Z,23.83
2018-09-06T06:51:24.088Z,23.40
2018-09-06T06:53:52.540Z,24.13
2018-09-06T06:56:21.098Z,22.33
2018-09-06T06:58:49.908Z,24.23
2018-09-06T07:01:18.084Z,22.63
2018-09-06T07:03:46.272Z,22.63
2018-09-06T07:06:14.477Z,22.07
2018-09-06T07:08:42.727Z,22.53
2018-09-06T07:11:10.926Z,22.50
2018-09-06T07:13:39.117Z,23.03
2018-09-06T07:16:07.286Z,22.23
2018-09-06T07:18:35.711Z,21.20
2018-09-06T07:21:03.878Z,23.17
2018-09-06T07:23:32.089Z,21.13
2018-09-06T07:26:00.296Z,21.20
2018-09-06T07:28:29.240Z,22.37
2018-09-06T07:30:57.470Z,21.80
2018-09-06T07:33:25.695Z,21.43
2018-09-06T07:35:53.910Z,21.73
2018-09-06T07:38:22.189Z,22.10
2018-09-06T07:40:50.573Z,21.37
2018-09-06T07:43:18.813Z,23.00
2018-09-06T07:45:47.021Z,21.13
2018-09-06T07:48:15.246Z,20.87
2018-09-06T07:50:43.510Z,22.23
2018-09-06T07:53:11.753Z,21.90
2018-09-06T07:55:39.928Z,20.83
2018-09-06T07:58:08.157Z,21.80
2018-09-06T08:00:40.194Z,20.77
2018-09-06T08:03:08.807Z,21.02
2018-09-06T08:05:37.066Z,19.17
2018-09-06T08:08:05.400Z,18.35
2018-09-06T08:10:33.680Z,17.75
2018-09-06T08:13:01.906Z,18.30
2018-09-06T08:15:30.143Z,20.05
2018-09-06T08:17:58.501Z,19.85
2018-09-06T08:20:26.763Z,19.00
2018-09-06T08:22:54.974Z,18.48
2018-09-06T08:25:23.183Z,19.17
2018-09-06T08:27:51.546Z,18.10
2018-09-06T08:30:19.814Z,18.07
2018-09-06T08:32:48.104Z,17.35
2018-09-06T08:35:16.342Z,18.20
2018-09-06T08:37:44.596Z,19.07
2018-09-06T08:40:12.839Z,18.23
2018-09-06T08:42:41.050Z,17.92
2018-09-06T08:45:09.274Z,16.67
2018-09-06T08:47:37.597Z,18.82
2018-09-06T08:50:05.742Z,19.23
2018-09-06T08:52:34.151Z,18.98
2018-09-06T08:55:02.581Z,18.32
2018-09-06T08:57:30.789Z,18.10
2018-09-06T08:59:59.253Z,18.73
2018-09-06T09:02:27.677Z,16.93
2018-09-06T09:04:55.798Z,18.52
2018-09-06T09:07:24.083Z,16.42
2018-09-06T09:09:52.278Z,17.73
2018-09-06T09:12:20.678Z,15.85
2018-09-06T09:14:48.942Z,15.45
2018-09-06T09:17:17.250Z,16.95
2018-09-06T09:19:46.765Z,14.80
2018-09-06T09:22:15.152Z,16.00
2018-09-06T09:24:43.211Z,16.10
2018-09-06T09:27:11.578Z,16.60
2018-09-06T09:29:39.762Z,14.50
2018-09-06T09:32:08.010Z,13.68
2018-09-06T09:34:36.345Z,15.03
2018-09-06T09:37:04.749Z,14.13
2018-09-06T09:39:33.021Z,15.00
2018-09-06T09:42:01.245Z,14.38
2018-09-06T09:44:29.565Z,13.45
2018-09-06T09:49:25.736Z,14.58
2018-09-06T09:51:53.984Z,13.78
2018-09-06T09:54:22.202Z,13.25
2018-09-06T09:56:50.468Z,13.38
2018-09-06T09:59:18.681Z,13.32
2018-09-06T10:01:52.469Z,13.38
2018-09-06T10:04:26.152Z,12.45
2018-09-06T10:06:59.898Z,11.28
2018-09-06T10:09:28.378Z,10.38
2018-09-06T10:11:56.619Z,12.78
2018-09-06T10:14:24.898Z,12.50
2018-09-06T10:16:53.191Z,11.55
2018-09-06T10:19:21.478Z,11.48
2018-09-06T10:21:49.859Z,10.65
2018-09-06T10:24:18.169Z,11.73
2018-09-06T10:26:46.741Z,11.33
2018-09-06T10:29:15.025Z,10.95
2018-09-06T10:31:43.441Z,11.63
2018-09-06T10:34:11.757Z,10.63
2018-09-06T10:36:40.069Z,10.00
2018-09-06T10:39:10.825Z,9.10
2018-09-06T10:41:39.253Z,8.45
2018-09-06T10:44:07.544Z,9.30
2018-09-06T10:46:35.997Z,10.23
2018-09-06T10:49:04.239Z,9.00
2018-09-06T10:51:32.441Z,8.88
2018-09-06T10:54:00.688Z,9.30
2018-09-06T10:56:29.070Z,9.40
2018-09-06T10:58:57.409Z,9.03
2018-09-06T11:01:25.789Z,10.45
2018-09-06T11:03:55.437Z,10.05
2018-09-06T11:06:23.997Z,9.18
2018-09-06T11:08:53.240Z,8.00
2018-09-06T11:11:21.702Z,8.98
2018-09-06T11:13:50.100Z,8.58
2018-09-06T11:16:18.925Z,7.62
2018-09-06T11:18:47.206Z,8.13
2018-09-06T11:21:15.535Z,7.90
2018-09-06T11:23:43.878Z,8.53
2018-09-06T11:26:12.369Z,7.85
2018-09-06T11:28:40.738Z,8.95
2018-09-06T11:31:08.986Z,8.58
2018-09-06T11:33:37.318Z,8.63
2018-09-06T11:36:05.553Z,9.08
2018-09-06T11:38:33.833Z,8.10
2018-09-06T11:41:02.339Z,8.20
2018-09-06T11:43:30.618Z,8.25
2018-09-06T11:45:58.987Z,7.60
2018-09-06T11:48:27.313Z,7.97
2018-09-06T11:50:55.577Z,7.67
2018-09-06T11:53:23.909Z,8.05
2018-09-06T11:55:52.490Z,8.13
2018-09-06T11:58:20.946Z,8.05
2018-09-06T12:00:49.269Z,7.28
2018-09-06T12:03:17.499Z,7.25
2018-09-06T12:05:45.723Z,7.33
2018-09-06T12:08:14.091Z,7.12
2018-09-06T12:10:42.469Z,7.40
2018-09-06T12:13:10.673Z,7.25
2018-09-06T12:15:38.906Z,7.87
2018-09-06T12:18:07.224Z,7.33
2018-09-06T12:20:35.473Z,7.05
2018-09-06T12:23:04.166Z,7.53
2018-09-06T12:25:32.419Z,7.53
2018-09-06T12:28:00.605Z,7.37
2018-09-06T12:30:28.901Z,6.85
2018-09-06T12:32:57.267Z,7.45
2018-09-06T12:35:25.445Z,7.30
2018-09-06T12:37:53.650Z,7.33
2018-09-06T12:40:21.886Z,7.85
2018-09-06T12:42:50.118Z,7.25
2018-09-06T12:45:18.313Z,7.42
2018-09-06T12:47:46.573Z,6.90
2018-09-06T12:50:14.786Z,7.72
2018-09-06T12:52:43.089Z,7.05
2018-09-06T12:55:11.293Z,6.97
2018-09-06T12:57:39.474Z,7.05
2018-09-06T13:00:07.692Z,7.62
2018-09-06T13:02:36.029Z,7.25
2018-09-06T13:05:04.302Z,7.97
2018-09-06T13:07:32.526Z,7.30
2018-09-06T13:10:00.771Z,7.20
2018-09-06T13:12:29.033Z,7.67
2018-09-06T13:14:57.717Z,7.83
2018-09-06T13:17:25.917Z,8.40
2018-09-06T13:19:54.579Z,7.65
2018-09-06T13:22:22.910Z,7.78
2018-09-06T13:24:51.331Z,7.40
2018-09-06T13:27:19.723Z,7.58
2018-09-06T13:29:47.877Z,7.33
2018-09-06T13:32:16.121Z,7.92
2018-09-06T13:34:44.465Z,7.47
2018-09-06T13:37:12.751Z,7.90
2018-09-06T13:39:41.161Z,6.97
2018-09-06T13:42:09.473Z,7.42
2018-09-06T13:44:37.746Z,7.55
2018-09-06T13:47:06.074Z,7.80
2018-09-06T13:49:34.578Z,7.62
2018-09-06T13:52:02.819Z,7.65
2018-09-06T13:54:31.043Z,7.85
2018-09-06T13:56:59.387Z,7.50
2018-09-06T13:59:27.703Z,7.97
2018-09-06T14:01:55.924Z,8.50
2018-09-06T14:04:24.166Z,7.65
2018-09-06T14:06:52.479Z,7.65
2018-09-06T14:09:20.843Z,8.20
2018-09-06T14:11:49.036Z,7.35
2018-09-06T14:14:17.257Z,7.25
2018-09-06T14:16:45.479Z,7.75
2018-09-06T14:19:13.720Z,7.05
2018-09-06T14:21:43.179Z,7.45
2018-09-06T14:24:11.418Z,7.90
2018-09-06T14:26:39.604Z,7.80
2018-09-06T14:29:07.822Z,8.23
2018-09-06T14:31:36.208Z,7.42
2018-09-06T14:34:04.430Z,7.42
2018-09-06T14:36:32.964Z,8.30
2018-09-06T14:39:01.230Z,7.30
2018-09-06T14:41:29.401Z,7.30
2018-09-06T14:43:57.687Z,8.15
2018-09-06T14:46:25.891Z,7.45
2018-09-06T14:48:54.126Z,7.37
2018-09-06T14:51:22.335Z,7.85
2018-09-06T14:53:50.649Z,7.67
2018-09-06T14:56:18.853Z,7.83
2018-09-06T14:58:47.109Z,7.53
2018-09-06T15:01:15.309Z,8.28
2018-09-06T15:03:43.599Z,6.92
2018-09-06T15:06:11.920Z,7.75
2018-09-06T15:08:40.150Z,7.45
2018-09-06T15:11:08.389Z,7.92
2018-09-06T15:13:37.595Z,7.75
2018-09-06T15:16:05.804Z,7.85
2018-09-06T15:18:34.039Z,7.90
2018-09-06T15:21:02.435Z,7.70
2018-09-06T15:23:30.654Z,8.18
2018-09-06T15:25:58.937Z,7.95
2018-09-06T15:28:27.558Z,8.10
2018-09-06T15:30:55.792Z,8.33
2018-09-06T15:33:24.418Z,7.67
2018-09-06T15:35:52.719Z,7.72
2018-09-06T15:38:21.298Z,8.23
2018-09-06T15:40:49.525Z,7.80
2018-09-06T15:43:17.860Z,7.12
2018-09-06T15:45:46.504Z,7.67
2018-09-06T15:48:14.731Z,7.15
2018-09-06T15:50:43.549Z,7.95
2018-09-06T15:53:11.809Z,7.40
2018-09-06T15:55:40.102Z,7.67
2018-09-06T15:58:08.312Z,7.83
2018-09-06T16:00:36.666Z,7.05
2018-09-06T16:03:04.982Z,7.60
2018-09-06T16:05:33.216Z,7.83
2018-09-06T16:08:01.421Z,7.17
2018-09-06T16:10:29.723Z,7.28
2018-09-06T16:12:57.950Z,7.25
2018-09-06T16:15:26.176Z,6.67
2018-09-06T16:17:54.365Z,7.90
2018-09-06T16:20:22.573Z,8.20
2018-09-06T16:22:50.862Z,7.17
2018-09-06T16:25:19.073Z,7.92
2018-09-06T16:27:47.306Z,8.28
2018-09-06T16:30:15.598Z,7.78
2018-09-06T16:32:43.850Z,7.97
2018-09-06T16:35:12.050Z,7.30
2018-09-06T16:37:40.262Z,7.62
2018-09-06T16:40:08.504Z,8.48
2018-09-06T16:42:37.375Z,7.62
2018-09-06T16:45:05.703Z,8.05
2018-09-06T16:47:33.932Z,7.37
2018-09-06T16:50:02.158Z,8.80
2018-09-06T16:52:30.411Z,9.13
2018-09-06T16:54:58.748Z,8.13
2018-09-06T16:57:27.854Z,8.90
2018-09-06T16:59:56.048Z,8.43
2018-09-06T17:02:24.237Z,7.40
2018-09-06T17:04:52.520Z,8.57
2018-09-06T17:07:20.738Z,8.47
2018-09-06T17:09:48.933Z,8.47
2018-09-06T17:12:17.159Z,8.37
2018-09-06T17:14:45.446Z,8.67
2018-09-06T17:17:14.032Z,8.20
2018-09-06T17:19:42.306Z,8.40
2018-09-06T17:22:10.483Z,8.13
2018-09-06T17:24:38.717Z,8.23
2018-09-06T17:27:06.961Z,7.67
2018-09-06T17:29:35.276Z,8.13
2018-09-06T17:32:03.499Z,9.20
2018-09-06T17:34:31.998Z,8.73
2018-09-06T17:37:00.182Z,8.23
2018-09-06T17:39:28.558Z,8.53
2018-09-06T17:41:56.837Z,7.90
2018-09-06T17:44:25.068Z,8.07
2018-09-06T17:46:53.268Z,8.43
2018-09-06T17:49:23.171Z,8.07
2018-09-06T17:51:51.523Z,8.03
2018-09-06T17:54:19.970Z,8.50
2018-09-06T17:56:48.174Z,8.00
2018-09-06T17:59:16.377Z,9.10
2018-09-06T18:01:44.637Z,9.30
2018-09-06T18:04:13.059Z,9.73
2018-09-06T18:06:41.256Z,8.57
2018-09-06T18:09:10.695Z,9.47
2018-09-06T18:11:39.251Z,9.00
2018-09-06T18:14:07.517Z,9.03
2018-09-06T18:16:35.794Z,9.30
2018-09-06T18:19:04.042Z,9.50
2018-09-06T18:21:32.317Z,9.20
2018-09-06T18:24:00.615Z,9.07
2018-09-06T18:26:28.994Z,8.50
2018-09-06T18:28:57.397Z,8.80
2018-09-06T18:31:25.634Z,8.33
2018-09-06T18:33:53.830Z,8.83
2018-09-06T18:36:22.045Z,9.60
2018-09-06T18:38:50.667Z,9.67
2018-09-06T18:41:19.069Z,9.90
2018-09-06T18:43:47.555Z,9.27
2018-09-06T18:46:15.859Z,9.80
2018-09-06T18:48:44.190Z,10.40
2018-09-06T18:51:12.786Z,9.40
2018-09-06T18:53:41.330Z,10.47
2018-09-06T18:56:09.682Z,10.30
2018-09-06T18:58:37.977Z,9.60
2018-09-06T19:01:06.350Z,10.20
2018-09-06T19:03:34.655Z,9.63
2018-09-06T19:06:03.337Z,12.00
2018-09-06T19:08:31.622Z,10.13
2018-09-06T19:11:00.080Z,11.50
2018-09-06T19:13:29.289Z,11.00
2018-09-06T19:15:57.596Z,11.47
2018-09-06T19:18:25.793Z,10.07
2018-09-06T19:20:54.221Z,10.80
2018-09-06T19:23:22.424Z,10.30
2018-09-06T19:25:50.774Z,9.63
2018-09-06T19:28:18.978Z,9.80
2018-09-06T19:30:47.226Z,10.37
2018-09-06T19:33:15.793Z,10.00
2018-09-06T19:35:44.837Z,9.87
2018-09-06T19:38:13.114Z,10.40
2018-09-06T19:40:41.321Z,10.03
2018-09-06T19:43:09.613Z,10.07
2018-09-06T19:45:37.838Z,10.80
2018-09-06T19:48:06.881Z,10.50
2018-09-06T19:50:35.729Z,10.80
2018-09-06T19:53:03.990Z,10.87
2018-09-06T19:55:32.154Z,9.87
2018-09-06T19:58:00.367Z,11.20
2018-09-06T20:00:28.829Z,10.90
2018-09-06T20:02:57.080Z,11.50
2018-09-06T20:05:25.582Z,11.23
2018-09-06T20:07:53.815Z,11.03
2018-09-06T20:10:22.180Z,9.67
2018-09-06T20:12:51.345Z,10.13
2018-09-06T20:15:19.678Z,9.33
2018-09-06T20:17:48.079Z,8.90
2018-09-06T20:20:16.282Z,9.07
2018-09-06T20:22:44.589Z,8.37
2018-09-06T20:25:12.841Z,8.80
2018-09-06T20:27:41.120Z,9.07
2018-09-06T20:30:09.314Z,9.57
2018-09-06T20:32:37.986Z,9.37
2018-09-06T20:35:06.378Z,9.10
2018-09-06T20:37:34.556Z,9.33
2018-09-06T20:40:02.907Z,9.57
2018-09-06T20:42:31.138Z,9.57
2018-09-06T20:44:59.547Z,9.13
2018-09-06T20:47:27.761Z,10.63
2018-09-06T20:49:56.341Z,10.40
2018-09-06T20:52:24.638Z,9.90
2018-09-06T20:54:52.934Z,10.00
2018-09-06T20:57:22.018Z,10.67
2018-09-06T20:59:50.342Z,9.30
2018-09-06T21:02:21.539Z,9.80
2018-09-06T21:04:50.470Z,9.50
2018-09-06T21:07:18.841Z,10.60
2018-09-06T21:09:47.071Z,9.93
2018-09-06T21:12:15.385Z,10.53
2018-09-06T21:14:43.726Z,10.63
2018-09-06T21:17:12.745Z,9.80
2018-09-06T21:19:40.954Z,9.80
2018-09-06T21:22:09.164Z,10.07
2018-09-06T21:24:37.415Z,9.60
2018-09-06T21:27:07.169Z,10.43
2018-09-06T21:29:35.709Z,10.27
2018-09-06T21:32:04.244Z,9.77
2018-09-06T21:34:32.532Z,10.30
2018-09-06T21:37:00.726Z,10.20
2018-09-06T21:39:29.021Z,9.83
2018-09-06T21:41:57.288Z,10.80
2018-09-06T21:44:25.473Z,10.67
2018-09-06T21:46:53.729Z,10.60
2018-09-06T21:49:22.087Z,10.30
2018-09-06T21:51:50.933Z,11.53
2018-09-06T21:54:19.233Z,10.27
2018-09-06T21:56:47.419Z,11.20
2018-09-06T21:59:15.741Z,10.70
2018-09-06T22:01:44.117Z,10.10
2018-09-06T22:04:12.352Z,10.63
2018-09-06T22:06:40.779Z,11.13
2018-09-06T22:09:11.272Z,10.07
2018-09-06T22:11:39.549Z,12.33
2018-09-06T22:14:08.021Z,11.20
2018-09-06T22:16:36.509Z,11.93
2018-09-06T22:19:04.740Z,11.33
2018-09-06T22:21:33.062Z,10.80
2018-09-06T22:24:01.412Z,11.50
2018-09-06T22:26:30.618Z,11.17
2018-09-06T22:28:58.973Z,10.07
2018-09-06T22:31:27.201Z,11.00
2018-09-06T22:33:55.425Z,11.47
2018-09-06T22:36:27.533Z,10.40
2018-09-06T22:38:55.726Z,10.87
2018-09-06T22:41:23.939Z,10.97
2018-09-06T22:43:52.394Z,10.33
2018-09-06T22:46:21.087Z,10.60
2018-09-06T22:48:49.371Z,10.73
2018-09-06T22:51:17.710Z,10.23
2018-09-06T22:53:45.986Z,10.43
2018-09-06T22:56:15.313Z,11.10
2018-09-06T22:58:43.783Z,10.17
2018-09-06T23:01:13.347Z,10.57
2018-09-06T23:03:43.522Z,11.03
2018-09-06T23:06:11.744Z,11.07
2018-09-06T23:08:39.995Z,11.53
2018-09-06T23:11:08.249Z,10.53
2018-09-06T23:13:36.698Z,11.20
2018-09-06T23:16:04.931Z,11.37
2018-09-06T23:18:33.237Z,10.87
2018-09-06T23:21:01.425Z,11.70
2018-09-06T23:23:30.338Z,11.07
2018-09-06T23:25:58.841Z,11.50
2018-09-06T23:28:27.062Z,11.37
2018-09-06T23:30:55.311Z,12.30
2018-09-06T23:33:23.771Z,11.90
2018-09-06T23:35:52.618Z,12.73
2018-09-06T23:38:21.166Z,11.77
2018-09-06T23:40:55.453Z,11.80
2018-09-06T23:43:24.755Z,11.33
2018-09-06T23:45:57.329Z,11.63
2018-09-06T23:48:26.742Z,11.23
2018-09-06T23:50:55.764Z,11.17
2018-09-06T23:53:24.627Z,12.07
2018-09-06T23:55:52.981Z,11.47
2018-09-06T23:58:21.749Z,11.40
